Asc — V7ON9 — position and weather

sailwx.info

Track history (hours):
 
Tides and Currents Weather Stations Pressure Air Temp Water Temp Dewpoint Dewpoint Depression Visibility Wind Speed Wind Dir Waves Ship Positions

Asc

Last reported at 2017-Nov-20 00:30 UTC. Time now 2017-Nov-22 02:02 UTC.
Position N 53°19' W 002°57'.

Length 105 m; draft 5 m.

Type: Ship. MMSI: 538003122.

Date/timePositionNaut miles runAvg speedWind from/ knotsBaromVisibWave heightAir tempDewpointWater temp
2017-Nov-20 00:30N 53°19' W 002°57'0 0.4
2017-Nov-20 00:00N 53°20' W 002°57'1 3.0
2017-Nov-19 23:30N 53°21' W 002°58'510.5
2017-Nov-19 23:00N 53°26' W 003°01'611.1
2017-Nov-19 22:30N 53°30' W 003°06'4 8.8
2017-Nov-19 22:00N 53°31' W 003°14'4 7.6
2017-Nov-19 21:30N 53°31' W 003°20'3 6.7
2017-Nov-19 21:00N 53°29' W 003°24'1 2.7
2017-Nov-19 20:30N 53°28' W 003°26'0 0.0
2017-Nov-19 20:00N 53°28' W 003°26'0 0.0
2017-Nov-19 19:30N 53°28' W 003°26'0 0.1
2017-Nov-19 19:00N 53°28' W 003°26'0 0.1
2017-Nov-19 18:27N 53°28' W 003°26'0 0.1
2017-Nov-19 18:00N 53°28' W 003°26'0 0.0
2017-Nov-19 17:30N 53°28' W 003°26'0 0.0
2017-Nov-19 17:00N 53°28' W 003°26'0 0.0
2017-Nov-19 16:30N 53°28' W 003°26'0 0.0
2017-Nov-19 16:00N 53°28' W 003°26'0 0.0
2017-Nov-19 15:30N 53°28' W 003°26'0 0.0
2017-Nov-19 15:00N 53°28' W 003°26'0 0.0
2017-Nov-19 14:30N 53°28' W 003°26'0 0.0
2017-Nov-19 14:00N 53°28' W 003°26'0 0.0
2017-Nov-19 13:30N 53°28' W 003°26'0 0.0
2017-Nov-19 13:00N 53°28' W 003°26'0 0.0
2017-Nov-19 12:30N 53°28' W 003°26'0 0.1
2017-Nov-19 12:00N 53°28' W 003°26'0 0.1
2017-Nov-19 11:30N 53°28' W 003°26'0 0.0
2017-Nov-19 11:00N 53°28' W 003°26'0 0.0
2017-Nov-19 10:30N 53°28' W 003°26'0 0.0
2017-Nov-19 10:00N 53°28' W 003°26'0 0.0
2017-Nov-19 09:30N 53°28' W 003°26'0 0.0
2017-Nov-19 09:00N 53°28' W 003°26'0 0.0
2017-Nov-19 08:30N 53°28' W 003°26'0 0.0
2017-Nov-19 08:00N 53°28' W 003°26'0 0.0
2017-Nov-19 07:30N 53°28' W 003°26'0 0.1
2017-Nov-19 07:00N 53°28' W 003°26'0 0.0
2017-Nov-19 06:30N 53°28' W 003°26'0 0.0
2017-Nov-19 06:00N 53°28' W 003°26'0 0.1
2017-Nov-19 05:30N 53°28' W 003°26'0 0.1
2017-Nov-19 04:57N 53°28' W 003°26'0 0.1
2017-Nov-19 04:30N 53°28' W 003°26'0 0.0
2017-Nov-19 04:00N 53°28' W 003°26'0 0.0
2017-Nov-19 03:30N 53°28' W 003°26'0 0.0
2017-Nov-19 03:00N 53°28' W 003°26'0 0.0
2017-Nov-19 02:30N 53°28' W 003°26'0 0.0
2017-Nov-19 02:00N 53°28' W 003°26'0 0.1
2017-Nov-19 01:30N 53°28' W 003°26'0 0.1
2017-Nov-19 01:00N 53°28' W 003°26'0 0.0
2017-Nov-19 00:30N 53°28' W 003°26'0 0.2
2017-Nov-19 00:00N 53°28' W 003°26'4 8.3
2017-Nov-18 23:30N 53°31' W 003°20'4 8.9
2017-Nov-18 23:00N 53°31' W 003°13'510.5
2017-Nov-18 22:30N 53°29' W 003°05'5 9.8
2017-Nov-18 22:00N 53°25' W 003°01'5 9.3
2017-Nov-18 21:30N 53°21' W 002°58'1 2.3
2017-Nov-18 20:55N 53°19' W 002°57'0 0.4
2017-Nov-18 20:28N 53°19' W 002°57'0 0.0
2017-Nov-18 19:58N 53°19' W 002°57'0 0.0
2017-Nov-18 19:28N 53°19' W 002°57'0 0.0
2017-Nov-18 18:55N 53°19' W 002°57'0 0.0
2017-Nov-18 18:25N 53°19' W 002°57'0 0.0
2017-Nov-18 17:58N 53°19' W 002°57'0 0.0
2017-Nov-18 17:28N 53°19' W 002°57'0 0.0
2017-Nov-18 16:58N 53°19' W 002°57'0 0.0
2017-Nov-18 16:28N 53°19' W 002°57'0 0.0
2017-Nov-18 15:58N 53°19' W 002°57'0 0.0
2017-Nov-18 15:22N 53°19' W 002°57'0 0.0
2017-Nov-18 14:55N 53°19' W 002°57'0 0.0
2017-Nov-18 14:28N 53°19' W 002°57'0 0.0
2017-Nov-18 13:58N 53°19' W 002°57'0 0.0
2017-Nov-18 13:28N 53°19' W 002°57'0 0.0
2017-Nov-18 12:58N 53°19' W 002°57'0 0.0
2017-Nov-18 12:22N 53°19' W 002°57'0 0.0
2017-Nov-18 11:58N 53°19' W 002°57'0 0.0
2017-Nov-18 11:25N 53°19' W 002°57'0 0.0
2017-Nov-18 10:58N 53°19' W 002°57'0 0.0
2017-Nov-18 10:25N 53°19' W 002°57'0 0.0
2017-Nov-18 09:58N 53°19' W 002°57'0 0.0
2017-Nov-18 09:22N 53°19' W 002°57'0 0.0
2017-Nov-18 08:58N 53°19' W 002°57'0 0.0
2017-Nov-18 08:22N 53°19' W 002°57'0 0.0
2017-Nov-18 07:55N 53°19' W 002°57'0 0.0
2017-Nov-18 07:28N 53°19' W 002°57'0 0.0
2017-Nov-18 06:58N 53°19' W 002°57'0 0.0
2017-Nov-18 06:28N 53°19' W 002°57'0 0.0
2017-Nov-18 05:55N 53°19' W 002°57'0 0.0
2017-Nov-18 05:28N 53°19' W 002°57'0 0.0
2017-Nov-18 04:55N 53°19' W 002°57'0 0.0
2017-Nov-18 04:25N 53°19' W 002°57'0 0.0
2017-Nov-18 03:55N 53°19' W 002°57'0 0.0
2017-Nov-18 03:22N 53°19' W 002°57'0 0.0
2017-Nov-18 02:58N 53°19' W 002°57'0 0.0
2017-Nov-18 02:28N 53°19' W 002°57'0 0.0
2017-Nov-18 01:49N 53°19' W 002°57'0 0.0
2017-Nov-18 01:25N 53°19' W 002°57'0 0.0
2017-Nov-18 00:58N 53°19' W 002°57'0 0.0
2017-Nov-18 00:28N 53°19' W 002°57'0 0.0
2017-Nov-17 23:58N 53°19' W 002°57'0 0.0
2017-Nov-17 23:25N 53°19' W 002°57'0 0.0
2017-Nov-17 22:58N 53°19' W 002°57'0 0.0
2017-Nov-17 22:13N 53°19' W 002°57'0 0.0
2017-Nov-17 21:52N 53°19' W 002°57'0 0.0
2017-Nov-17 21:28N 53°19' W 002°57'0 0.0
2017-Nov-17 20:58N 53°19' W 002°57'0 0.0
2017-Nov-17 20:25N 53°19' W 002°57'0 0.0
2017-Nov-17 19:55N 53°19' W 002°57'0 0.0
2017-Nov-17 19:25N 53°19' W 002°57'0 0.0
2017-Nov-17 18:37N 53°19' W 002°57'0 0.0
2017-Nov-17 18:25N 53°19' W 002°57'0 0.0
2017-Nov-17 17:58N 53°19' W 002°57'0 0.0
2017-Nov-17 17:25N 53°19' W 002°57'0 0.0
2017-Nov-17 16:49N 53°19' W 002°57'0 0.0
2017-Nov-17 16:25N 53°19' W 002°57'0 0.0
2017-Nov-17 15:58N 53°19' W 002°57'0 0.0
2017-Nov-17 15:25N 53°19' W 002°57'0 0.0
2017-Nov-17 14:58N 53°19' W 002°57'0 0.0
2017-Nov-17 14:16N 53°19' W 002°57'0 0.0
2017-Nov-17 13:58N 53°19' W 002°57'0 0.0
2017-Nov-17 13:28N 53°19' W 002°57'0 0.0
2017-Nov-17 12:58N 53°19' W 002°57'0 0.0
2017-Nov-17 12:30N 53°19' W 002°57'0 0.1
2017-Nov-17 12:00N 53°19' W 002°57'0 0.4
2017-Nov-17 11:30N 53°19' W 002°57'1 1.5
2017-Nov-17 11:01N 53°20' W 002°57'510.5
2017-Nov-17 10:30N 53°25' W 003°01'612.7
2017-Nov-17 10:00N 53°31' W 003°06'611.6
2017-Nov-17 09:30N 53°31' W 003°16'510.6
2017-Nov-17 09:00N 53°29' W 003°24'1 2.2
2017-Nov-17 08:30N 53°28' W 003°25'0 0.0
2017-Nov-17 08:00N 53°28' W 003°25'0 0.0
2017-Nov-17 07:30N 53°28' W 003°25'0 0.0
2017-Nov-17 06:57N 53°28' W 003°25'0 0.0
2017-Nov-17 06:30N 53°28' W 003°25'0 0.0
2017-Nov-17 06:00N 53°28' W 003°25'0 0.0
2017-Nov-17 05:30N 53°28' W 003°25'0 0.0
2017-Nov-17 05:00N 53°28' W 003°25'0 0.0
2017-Nov-17 04:30N 53°28' W 003°25'0 0.1
2017-Nov-17 04:00N 53°28' W 003°26'0 0.1
2017-Nov-17 03:30N 53°28' W 003°26'0 0.0
2017-Nov-17 03:00N 53°29' W 003°26'0 0.0
2017-Nov-17 02:30N 53°29' W 003°26'0 0.0
2017-Nov-17 02:00N 53°29' W 003°26'0 0.0
2017-Nov-17 01:30N 53°29' W 003°26'0 0.0
2017-Nov-17 01:00N 53°29' W 003°26'0 0.0
2017-Nov-17 00:30N 53°29' W 003°26'0 0.1
2017-Nov-17 00:00N 53°28' W 003°26'0 0.2
2017-Nov-16 23:30N 53°28' W 003°26'0 0.1
2017-Nov-16 23:00N 53°28' W 003°26'0 0.1
2017-Nov-16 22:27N 53°28' W 003°25'0 0.0
2017-Nov-16 22:00N 53°28' W 003°25'0 0.0
2017-Nov-16 21:30N 53°28' W 003°25'0 0.0
2017-Nov-16 21:00N 53°28' W 003°25'0 0.0
2017-Nov-16 20:27N 53°28' W 003°25'0 0.0
2017-Nov-16 20:00N 53°28' W 003°25'0 0.0
2017-Nov-16 19:30N 53°28' W 003°25'0 0.0
2017-Nov-16 19:00N 53°28' W 003°25'0 0.0
2017-Nov-16 18:30N 53°28' W 003°25'0 0.0
2017-Nov-16 17:57N 53°28' W 003°25'0 0.0
2017-Nov-16 17:30N 53°28' W 003°25'0 0.0
2017-Nov-16 17:00N 53°28' W 003°25'0 0.0
2017-Nov-16 16:30N 53°28' W 003°25'0 0.0
2017-Nov-16 16:00N 53°28' W 003°25'0 0.0
2017-Nov-16 15:27N 53°28' W 003°25'0 0.0
2017-Nov-16 14:57N 53°28' W 003°25'0 0.1
2017-Nov-16 14:24N 53°28' W 003°26'0 0.2
2017-Nov-16 14:00N 53°28' W 003°26'0 0.1
2017-Nov-16 13:30N 53°28' W 003°26'0 0.1
2017-Nov-16 13:00N 53°28' W 003°26'0 0.1
2017-Nov-16 12:27N 53°28' W 003°26'0 0.1
2017-Nov-16 12:00N 53°28' W 003°26'0 0.1
2017-Nov-16 11:27N 53°28' W 003°26'0 0.1
2017-Nov-16 10:57N 53°28' W 003°25'0 0.0
2017-Nov-16 10:30N 53°28' W 003°25'0 0.0
2017-Nov-16 10:00N 53°28' W 003°25'0 0.0
2017-Nov-16 09:30N 53°28' W 003°25'0 0.1
2017-Nov-16 09:00N 53°28' W 003°25'0 0.1
2017-Nov-16 08:30N 53°28' W 003°25'0 0.0
2017-Nov-16 08:00N 53°28' W 003°25'0 0.0
2017-Nov-16 07:30N 53°28' W 003°25'0 0.0
2017-Nov-16 07:00N 53°28' W 003°25'0 0.0
2017-Nov-16 06:30N 53°28' W 003°25'0 0.0
2017-Nov-16 06:00N 53°28' W 003°25'0 0.0
2017-Nov-16 05:30N 53°28' W 003°25'0 0.0
2017-Nov-16 05:00N 53°29' W 003°25'0 0.0
2017-Nov-16 04:30N 53°29' W 003°25'0 0.0
2017-Nov-16 04:00N 53°29' W 003°25'0 0.1
2017-Nov-16 03:30N 53°29' W 003°25'0 0.2
2017-Nov-16 03:00N 53°29' W 003°26'0 0.1
2017-Nov-16 02:30N 53°28' W 003°26'0 0.0
2017-Nov-16 01:54N 53°28' W 003°26'0 0.0
2017-Nov-16 01:30N 53°28' W 003°26'0 0.0
2017-Nov-16 01:00N 53°28' W 003°26'0 0.0
2017-Nov-16 00:30N 53°28' W 003°26'0 0.0
2017-Nov-15 23:57N 53°28' W 003°26'0 0.0
2017-Nov-15 23:30N 53°28' W 003°26'0 0.0
2017-Nov-15 23:00N 53°28' W 003°26'0 0.0
2017-Nov-15 22:30N 53°28' W 003°26'0 0.1
2017-Nov-15 21:57N 53°29' W 003°26'0 0.0
2017-Nov-15 21:30N 53°29' W 003°26'0 0.2
2017-Nov-15 21:00N 53°28' W 003°25'0 0.0
2017-Nov-15 20:30N 53°28' W 003°25'0 0.0
2017-Nov-15 20:00N 53°28' W 003°25'0 0.0
2017-Nov-15 19:27N 53°28' W 003°25'0 0.0
2017-Nov-15 18:42N 53°28' W 003°25'0 0.0
2017-Nov-15 18:27N 53°28' W 003°25'0 0.0
2017-Nov-15 18:00N 53°28' W 003°25'0 0.0
2017-Nov-15 17:30N 53°28' W 003°25'0 0.0
2017-Nov-15 17:00N 53°28' W 003°25'0 0.0
2017-Nov-15 16:30N 53°28' W 003°25'0 0.0
2017-Nov-15 16:00N 53°28' W 003°25'2 4.8
2017-Nov-15 15:30N 53°29' W 003°29'612.3
2017-Nov-15 15:00N 53°31' W 003°39'611.7
2017-Nov-15 14:30N 53°34' W 003°48'611.9
2017-Nov-15 13:59N 53°37' W 003°57'611.5
2017-Nov-15 13:29N 53°40' W 004°05'4111.3
2017-Nov-15 09:49N 54°06' W 004°60'412.2
2017-Nov-15 09:31N 54°09' W 005°02'612.3
2017-Nov-15 09:01N 54°15' W 005°06'612.6
2017-Nov-15 08:31N 54°21' W 005°10'612.9
2017-Nov-15 08:01N 54°27' W 005°14'713.3
2017-Nov-15 07:30N 54°33' W 005°18'714.2
2017-Nov-15 07:01N 54°40' W 005°22'714.5
2017-Nov-15 06:31N 54°47' W 005°27'714.1
2017-Nov-15 06:01N 54°53' W 005°33'713.9
2017-Nov-15 05:31N 54°58' W 005°40'714.3
2017-Nov-15 05:00N 55°05' W 005°47'714.2
2017-Nov-15 04:30N 55°10' W 005°54'713.3
2017-Nov-15 04:01N 55°16' W 005°60'612.7
2017-Nov-15 03:30N 55°21' W 006°07'611.7
2017-Nov-15 03:00N 55°23' W 006°16'611.9
2017-Nov-15 02:31N 55°28' W 006°23'611.6
2017-Nov-15 02:00N 55°32' W 006°29'611.1
2017-Nov-15 01:30N 55°37' W 006°36'510.0
2017-Nov-15 01:00N 55°41' W 006°41'5 9.9
2017-Nov-15 00:30N 55°45' W 006°46'510.3
2017-Nov-15 00:00N 55°49' W 006°51'610.9
2017-Nov-14 23:28N 55°54' W 006°57'188 9.8
2017-Nov-14 04:22N 58°43' W 004°27'3 8.8
2017-Nov-14 04:00N 58°43' W 004°21'4 8.8
2017-Nov-14 03:30N 58°43' W 004°12'4 8.7
2017-Nov-14 03:00N 58°43' W 004°04'4 8.9
2017-Nov-14 02:30N 58°43' W 003°55'5 9.2
2017-Nov-14 02:00N 58°43' W 003°46'5 9.4
2017-Nov-14 01:30N 58°44' W 003°37'5 9.9
2017-Nov-14 01:00N 58°44' W 003°28'611.2
2017-Nov-14 00:29N 58°44' W 003°17'713.6
2017-Nov-14 00:01N 58°43' W 003°04'714.2
2017-Nov-13 23:30N 58°42' W 002°51'611.9
2017-Nov-13 23:00N 58°41' W 002°39'272 8.8
2017-Nov-12 16:02N 57°51' E 005°49'0 7.5
2017-Nov-12 16:00N 57°51' E 005°49'4 8.1
2017-Nov-12 15:29N 57°50' E 005°57'4 8.1
2017-Nov-12 15:00N 57°50' E 006°04'4 8.4
2017-Nov-12 14:30N 57°49' E 006°12'4 8.7
2017-Nov-12 14:01N 57°49' E 006°20'5 9.4
2017-Nov-12 13:30N 57°48' E 006°29'5 9.8
2017-Nov-12 13:00N 57°47' E 006°38'510.5
2017-Nov-12 12:30N 57°47' E 006°48'511.0
2017-Nov-12 12:01N 57°47' E 006°58'611.1
2017-Nov-12 11:30N 57°46' E 007°09'510.8
2017-Nov-12 11:00N 57°46' E 007°19'510.9
2017-Nov-12 10:31N 57°46' E 007°29'510.7
2017-Nov-12 10:00N 57°46' E 007°39'510.6
2017-Nov-12 09:30N 57°46' E 007°49'510.5
2017-Nov-12 09:00N 57°46' E 007°59'510.6
2017-Nov-12 08:30N 57°46' E 008°09'3310.2
2017-Nov-12 05:17N 57°47' E 009°10'3 9.5
2017-Nov-12 05:00N 57°47' E 009°15'5 9.4
2017-Nov-12 04:30N 57°47' E 009°24'5 9.8
2017-Nov-12 03:59N 57°47' E 009°34'510.1
2017-Nov-12 03:30N 57°48' E 009°43'1710.6
2017-Nov-12 01:55N 57°48' E 010°14'410.4
2017-Nov-12 01:30N 57°49' E 010°22'510.1
2017-Nov-12 01:00N 57°48' E 010°32'510.3
2017-Nov-12 00:30N 57°48' E 010°42'5 9.2
2017-Nov-12 00:01N 57°44' E 010°45'5 9.7
2017-Nov-11 23:30N 57°42' E 010°37'0 0.1
2017-Nov-11 22:58N 57°42' E 010°37'0 0.1
2017-Nov-11 21:49N 57°42' E 010°37'0 0.1
2017-Nov-11 21:22N 57°42' E 010°37'0 0.0
2017-Nov-11 20:46N 57°42' E 010°37'0 0.0
2017-Nov-11 20:22N 57°42' E 010°37'0 0.0
2017-Nov-11 19:37N 57°42' E 010°37'0 0.0
2017-Nov-11 19:28N 57°42' E 010°37'0 0.0
2017-Nov-11 18:46N 57°42' E 010°37'0 0.0
2017-Nov-11 18:19N 57°42' E 010°37'0 0.0
2017-Nov-11 17:49N 57°42' E 010°37'0 0.2
2017-Nov-11 17:30N 57°42' E 010°37'3 6.8
2017-Nov-11 17:00N 57°41' E 010°43'4 8.5
2017-Nov-11 16:30N 57°43' E 010°51'510.3
2017-Nov-11 16:00N 57°42' E 011°00'510.5
2017-Nov-11 15:30N 57°40' E 011°09'510.5
2017-Nov-11 15:00N 57°39' E 011°19'510.4
2017-Nov-11 14:30N 57°37' E 011°28'510.4
2017-Nov-11 14:00N 57°36' E 011°38'510.5
2017-Nov-11 13:30N 57°39' E 011°45'5 9.4
2017-Nov-11 13:00N 57°41' E 011°53'0 0.1
2017-Nov-11 12:28N 57°41' E 011°53'0 0.0
2017-Nov-11 11:58N 57°41' E 011°53'0 0.0
2017-Nov-11 11:28N 57°41' E 011°53'0 0.0
2017-Nov-11 10:58N 57°41' E 011°53'0 0.0
2017-Nov-11 10:28N 57°41' E 011°53'0 0.0
2017-Nov-11 09:58N 57°41' E 011°53'0 0.0
2017-Nov-11 09:28N 57°41' E 011°53'0 0.0
2017-Nov-11 08:58N 57°41' E 011°53'0 0.0
2017-Nov-11 08:25N 57°41' E 011°53'0 0.0
2017-Nov-11 07:58N 57°41' E 011°53'0 0.0
2017-Nov-11 07:28N 57°41' E 011°53'0 0.0
2017-Nov-11 06:58N 57°41' E 011°53'0 0.0
2017-Nov-11 06:28N 57°41' E 011°53'0 0.0
2017-Nov-11 05:58N 57°41' E 011°53'0 0.0
2017-Nov-11 05:28N 57°41' E 011°53'0 0.0
2017-Nov-11 04:59N 57°41' E 011°53'0 0.0
2017-Nov-11 04:29N 57°41' E 011°53'0 0.0
2017-Nov-11 03:59N 57°41' E 011°53'0 0.0
2017-Nov-11 03:29N 57°41' E 011°53'0 0.0
2017-Nov-11 02:59N 57°41' E 011°53'0 0.0
2017-Nov-11 02:29N 57°41' E 011°53'0 0.0
2017-Nov-11 01:59N 57°41' E 011°53'0 0.0
2017-Nov-11 01:29N 57°41' E 011°53'0 0.0
2017-Nov-11 00:59N 57°41' E 011°53'0 0.0
2017-Nov-11 00:26N 57°41' E 011°53'0 0.0
2017-Nov-11 00:00N 57°41' E 011°53'1 1.9
2017-Nov-10 23:30N 57°41' E 011°52'4 8.7
2017-Nov-10 23:01N 57°39' E 011°44'5 9.8
2017-Nov-10 22:31N 57°35' E 011°39'4 8.3
2017-Nov-10 22:00N 57°31' E 011°38'5 9.4
2017-Nov-10 21:30N 57°27' E 011°41'510.3
2017-Nov-10 21:01N 57°22' E 011°45'711.5
2017-Nov-10 20:23N 57°16' E 011°51'511.6
2017-Nov-10 19:58N 57°11' E 011°54'5211.2
2017-Nov-10 15:20N 56°21' E 012°22'411.5
2017-Nov-10 14:57N 56°17' E 012°24'511.8
2017-Nov-10 14:30N 56°12' E 012°28'612.2
2017-Nov-10 14:01N 56°07' E 012°33'612.7
2017-Nov-10 13:30N 56°02' E 012°40'612.6
2017-Nov-10 13:01N 55°56' E 012°44'612.0
2017-Nov-10 12:31N 55°50' E 012°46'612.0
2017-Nov-10 12:01N 55°45' E 012°51'612.1
2017-Nov-10 11:30N 55°40' E 012°57'611.3
2017-Nov-10 11:00N 55°35' E 012°51'611.8
2017-Nov-10 10:31N 55°31' E 012°44'612.3
2017-Nov-10 10:00N 55°25' E 012°42'611.8
2017-Nov-10 09:30N 55°19' E 012°42'611.8
2017-Nov-10 09:01N 55°16' E 012°51'611.8
2017-Nov-10 08:30N 55°15' E 013°02'611.7
2017-Nov-10 08:00N 55°14' E 013°12'1611.6
2017-Nov-10 06:39N 55°14' E 013°39'411.3
2017-Nov-10 06:16N 55°13' E 013°47'411.6
2017-Nov-10 05:58N 55°13' E 013°53'1011.7
2017-Nov-10 05:05N 55°13' E 014°11'211.5
2017-Nov-10 04:56N 55°13' E 014°14'510.7
2017-Nov-10 04:30N 55°15' E 014°21'611.7
2017-Nov-10 04:00N 55°20' E 014°27'611.4
2017-Nov-10 03:29N 55°25' E 014°33'510.9
2017-Nov-10 03:00N 55°28' E 014°40'611.2
2017-Nov-10 02:30N 55°31' E 014°49'611.1
2017-Nov-10 02:00N 55°33' E 014°58'611.2
2017-Nov-10 01:30N 55°36' E 015°06'510.8
2017-Nov-10 01:01N 55°38' E 015°15'510.7
2017-Nov-10 00:31N 55°40' E 015°24'  
Track history (hours):
 
Tides and Currents Weather Stations Pressure Air Temp Water Temp Dewpoint Dewpoint Depression Visibility Wind Speed Wind Dir Waves Ship Positions

Asc

Last reported at 2017-Nov-20 00:30 UTC. Time now 2017-Nov-22 02:02 UTC.
Position N 53°19' W 002°57'.

Length 105 m; draft 5 m.

Type: Ship. MMSI: 538003122.

Date/timePositionNaut miles runAvg speedWind from/ knotsBaromVisibWave heightAir tempDewpointWater temp
2017-Nov-20 00:30N 53°19' W 002°57'0 0.4
2017-Nov-20 00:00N 53°20' W 002°57'1 3.0
2017-Nov-19 23:30N 53°21' W 002°58'510.5
2017-Nov-19 23:00N 53°26' W 003°01'611.1
2017-Nov-19 22:30N 53°30' W 003°06'4 8.8
2017-Nov-19 22:00N 53°31' W 003°14'4 7.6
2017-Nov-19 21:30N 53°31' W 003°20'3 6.7
2017-Nov-19 21:00N 53°29' W 003°24'1 2.7
2017-Nov-19 20:30N 53°28' W 003°26'0 0.0
2017-Nov-19 20:00N 53°28' W 003°26'0 0.0
2017-Nov-19 19:30N 53°28' W 003°26'0 0.1
2017-Nov-19 19:00N 53°28' W 003°26'0 0.1
2017-Nov-19 18:27N 53°28' W 003°26'0 0.1
2017-Nov-19 18:00N 53°28' W 003°26'0 0.0
2017-Nov-19 17:30N 53°28' W 003°26'0 0.0
2017-Nov-19 17:00N 53°28' W 003°26'0 0.0
2017-Nov-19 16:30N 53°28' W 003°26'0 0.0
2017-Nov-19 16:00N 53°28' W 003°26'0 0.0
2017-Nov-19 15:30N 53°28' W 003°26'0 0.0
2017-Nov-19 15:00N 53°28' W 003°26'0 0.0
2017-Nov-19 14:30N 53°28' W 003°26'0 0.0
2017-Nov-19 14:00N 53°28' W 003°26'0 0.0
2017-Nov-19 13:30N 53°28' W 003°26'0 0.0
2017-Nov-19 13:00N 53°28' W 003°26'0 0.0
2017-Nov-19 12:30N 53°28' W 003°26'0 0.1
2017-Nov-19 12:00N 53°28' W 003°26'0 0.1
2017-Nov-19 11:30N 53°28' W 003°26'0 0.0
2017-Nov-19 11:00N 53°28' W 003°26'0 0.0
2017-Nov-19 10:30N 53°28' W 003°26'0 0.0
2017-Nov-19 10:00N 53°28' W 003°26'0 0.0
2017-Nov-19 09:30N 53°28' W 003°26'0 0.0
2017-Nov-19 09:00N 53°28' W 003°26'0 0.0
2017-Nov-19 08:30N 53°28' W 003°26'0 0.0
2017-Nov-19 08:00N 53°28' W 003°26'0 0.0
2017-Nov-19 07:30N 53°28' W 003°26'0 0.1
2017-Nov-19 07:00N 53°28' W 003°26'0 0.0
2017-Nov-19 06:30N 53°28' W 003°26'0 0.0
2017-Nov-19 06:00N 53°28' W 003°26'0 0.1
2017-Nov-19 05:30N 53°28' W 003°26'0 0.1
2017-Nov-19 04:57N 53°28' W 003°26'0 0.1
2017-Nov-19 04:30N 53°28' W 003°26'0 0.0
2017-Nov-19 04:00N 53°28' W 003°26'0 0.0
2017-Nov-19 03:30N 53°28' W 003°26'0 0.0
2017-Nov-19 03:00N 53°28' W 003°26'0 0.0
2017-Nov-19 02:30N 53°28' W 003°26'0 0.0
2017-Nov-19 02:00N 53°28' W 003°26'0 0.1
2017-Nov-19 01:30N 53°28' W 003°26'0 0.1
2017-Nov-19 01:00N 53°28' W 003°26'0 0.0
2017-Nov-19 00:30N 53°28' W 003°26'0 0.2
2017-Nov-19 00:00N 53°28' W 003°26'4 8.3
2017-Nov-18 23:30N 53°31' W 003°20'4 8.9
2017-Nov-18 23:00N 53°31' W 003°13'510.5
2017-Nov-18 22:30N 53°29' W 003°05'5 9.8
2017-Nov-18 22:00N 53°25' W 003°01'5 9.3
2017-Nov-18 21:30N 53°21' W 002°58'1 2.3
2017-Nov-18 20:55N 53°19' W 002°57'0 0.4
2017-Nov-18 20:28N 53°19' W 002°57'0 0.0
2017-Nov-18 19:58N 53°19' W 002°57'0 0.0
2017-Nov-18 19:28N 53°19' W 002°57'0 0.0
2017-Nov-18 18:55N 53°19' W 002°57'0 0.0
2017-Nov-18 18:25N 53°19' W 002°57'0 0.0
2017-Nov-18 17:58N 53°19' W 002°57'0 0.0
2017-Nov-18 17:28N 53°19' W 002°57'0 0.0
2017-Nov-18 16:58N 53°19' W 002°57'0 0.0
2017-Nov-18 16:28N 53°19' W 002°57'0 0.0
2017-Nov-18 15:58N 53°19' W 002°57'0 0.0
2017-Nov-18 15:22N 53°19' W 002°57'0 0.0
2017-Nov-18 14:55N 53°19' W 002°57'0 0.0
2017-Nov-18 14:28N 53°19' W 002°57'0 0.0
2017-Nov-18 13:58N 53°19' W 002°57'0 0.0
2017-Nov-18 13:28N 53°19' W 002°57'0 0.0
2017-Nov-18 12:58N 53°19' W 002°57'0 0.0
2017-Nov-18 12:22N 53°19' W 002°57'0 0.0
2017-Nov-18 11:58N 53°19' W 002°57'0 0.0
2017-Nov-18 11:25N 53°19' W 002°57'0 0.0
2017-Nov-18 10:58N 53°19' W 002°57'0 0.0
2017-Nov-18 10:25N 53°19' W 002°57'0 0.0
2017-Nov-18 09:58N 53°19' W 002°57'0 0.0
2017-Nov-18 09:22N 53°19' W 002°57'0 0.0
2017-Nov-18 08:58N 53°19' W 002°57'0 0.0
2017-Nov-18 08:22N 53°19' W 002°57'0 0.0
2017-Nov-18 07:55N 53°19' W 002°57'0 0.0
2017-Nov-18 07:28N 53°19' W 002°57'0 0.0
2017-Nov-18 06:58N 53°19' W 002°57'0 0.0
2017-Nov-18 06:28N 53°19' W 002°57'0 0.0
2017-Nov-18 05:55N 53°19' W 002°57'0 0.0
2017-Nov-18 05:28N 53°19' W 002°57'0 0.0
2017-Nov-18 04:55N 53°19' W 002°57'0 0.0
2017-Nov-18 04:25N 53°19' W 002°57'0 0.0
2017-Nov-18 03:55N 53°19' W 002°57'0 0.0
2017-Nov-18 03:22N 53°19' W 002°57'0 0.0
2017-Nov-18 02:58N 53°19' W 002°57'0 0.0
2017-Nov-18 02:28N 53°19' W 002°57'0 0.0
2017-Nov-18 01:49N 53°19' W 002°57'0 0.0
2017-Nov-18 01:25N 53°19' W 002°57'0 0.0
2017-Nov-18 00:58N 53°19' W 002°57'0 0.0
2017-Nov-18 00:28N 53°19' W 002°57'0 0.0
2017-Nov-17 23:58N 53°19' W 002°57'0 0.0
2017-Nov-17 23:25N 53°19' W 002°57'0 0.0
2017-Nov-17 22:58N 53°19' W 002°57'0 0.0
2017-Nov-17 22:13N 53°19' W 002°57'0 0.0
2017-Nov-17 21:52N 53°19' W 002°57'0 0.0
2017-Nov-17 21:28N 53°19' W 002°57'0 0.0
2017-Nov-17 20:58N 53°19' W 002°57'0 0.0
2017-Nov-17 20:25N 53°19' W 002°57'0 0.0
2017-Nov-17 19:55N 53°19' W 002°57'0 0.0
2017-Nov-17 19:25N 53°19' W 002°57'0 0.0
2017-Nov-17 18:37N 53°19' W 002°57'0 0.0
2017-Nov-17 18:25N 53°19' W 002°57'0 0.0
2017-Nov-17 17:58N 53°19' W 002°57'0 0.0
2017-Nov-17 17:25N 53°19' W 002°57'0 0.0
2017-Nov-17 16:49N 53°19' W 002°57'0 0.0
2017-Nov-17 16:25N 53°19' W 002°57'0 0.0
2017-Nov-17 15:58N 53°19' W 002°57'0 0.0
2017-Nov-17 15:25N 53°19' W 002°57'0 0.0
2017-Nov-17 14:58N 53°19' W 002°57'0 0.0
2017-Nov-17 14:16N 53°19' W 002°57'0 0.0
2017-Nov-17 13:58N 53°19' W 002°57'0 0.0
2017-Nov-17 13:28N 53°19' W 002°57'0 0.0
2017-Nov-17 12:58N 53°19' W 002°57'0 0.0
2017-Nov-17 12:30N 53°19' W 002°57'0 0.1
2017-Nov-17 12:00N 53°19' W 002°57'0 0.4
2017-Nov-17 11:30N 53°19' W 002°57'1 1.5
2017-Nov-17 11:01N 53°20' W 002°57'510.5
2017-Nov-17 10:30N 53°25' W 003°01'612.7
2017-Nov-17 10:00N 53°31' W 003°06'611.6
2017-Nov-17 09:30N 53°31' W 003°16'510.6
2017-Nov-17 09:00N 53°29' W 003°24'1 2.2
2017-Nov-17 08:30N 53°28' W 003°25'0 0.0
2017-Nov-17 08:00N 53°28' W 003°25'0 0.0
2017-Nov-17 07:30N 53°28' W 003°25'0 0.0
2017-Nov-17 06:57N 53°28' W 003°25'0 0.0
2017-Nov-17 06:30N 53°28' W 003°25'0 0.0
2017-Nov-17 06:00N 53°28' W 003°25'0 0.0
2017-Nov-17 05:30N 53°28' W 003°25'0 0.0
2017-Nov-17 05:00N 53°28' W 003°25'0 0.0
2017-Nov-17 04:30N 53°28' W 003°25'0 0.1
2017-Nov-17 04:00N 53°28' W 003°26'0 0.1
2017-Nov-17 03:30N 53°28' W 003°26'0 0.0
2017-Nov-17 03:00N 53°29' W 003°26'0 0.0
2017-Nov-17 02:30N 53°29' W 003°26'0 0.0
2017-Nov-17 02:00N 53°29' W 003°26'0 0.0
2017-Nov-17 01:30N 53°29' W 003°26'0 0.0
2017-Nov-17 01:00N 53°29' W 003°26'0 0.0
2017-Nov-17 00:30N 53°29' W 003°26'0 0.1
2017-Nov-17 00:00N 53°28' W 003°26'0 0.2
2017-Nov-16 23:30N 53°28' W 003°26'0 0.1
2017-Nov-16 23:00N 53°28' W 003°26'0 0.1
2017-Nov-16 22:27N 53°28' W 003°25'0 0.0
2017-Nov-16 22:00N 53°28' W 003°25'0 0.0
2017-Nov-16 21:30N 53°28' W 003°25'0 0.0
2017-Nov-16 21:00N 53°28' W 003°25'0 0.0
2017-Nov-16 20:27N 53°28' W 003°25'0 0.0
2017-Nov-16 20:00N 53°28' W 003°25'0 0.0
2017-Nov-16 19:30N 53°28' W 003°25'0 0.0
2017-Nov-16 19:00N 53°28' W 003°25'0 0.0
2017-Nov-16 18:30N 53°28' W 003°25'0 0.0
2017-Nov-16 17:57N 53°28' W 003°25'0 0.0
2017-Nov-16 17:30N 53°28' W 003°25'0 0.0
2017-Nov-16 17:00N 53°28' W 003°25'0 0.0
2017-Nov-16 16:30N 53°28' W 003°25'0 0.0
2017-Nov-16 16:00N 53°28' W 003°25'0 0.0
2017-Nov-16 15:27N 53°28' W 003°25'0 0.0
2017-Nov-16 14:57N 53°28' W 003°25'0 0.1
2017-Nov-16 14:24N 53°28' W 003°26'0 0.2
2017-Nov-16 14:00N 53°28' W 003°26'0 0.1
2017-Nov-16 13:30N 53°28' W 003°26'0 0.1
2017-Nov-16 13:00N 53°28' W 003°26'0 0.1
2017-Nov-16 12:27N 53°28' W 003°26'0 0.1
2017-Nov-16 12:00N 53°28' W 003°26'0 0.1
2017-Nov-16 11:27N 53°28' W 003°26'0 0.1
2017-Nov-16 10:57N 53°28' W 003°25'0 0.0
2017-Nov-16 10:30N 53°28' W 003°25'0 0.0
2017-Nov-16 10:00N 53°28' W 003°25'0 0.0
2017-Nov-16 09:30N 53°28' W 003°25'0 0.1
2017-Nov-16 09:00N 53°28' W 003°25'0 0.1
2017-Nov-16 08:30N 53°28' W 003°25'0 0.0
2017-Nov-16 08:00N 53°28' W 003°25'0 0.0
2017-Nov-16 07:30N 53°28' W 003°25'0 0.0
2017-Nov-16 07:00N 53°28' W 003°25'0 0.0
2017-Nov-16 06:30N 53°28' W 003°25'0 0.0
2017-Nov-16 06:00N 53°28' W 003°25'0 0.0
2017-Nov-16 05:30N 53°28' W 003°25'0 0.0
2017-Nov-16 05:00N 53°29' W 003°25'0 0.0
2017-Nov-16 04:30N 53°29' W 003°25'0 0.0
2017-Nov-16 04:00N 53°29' W 003°25'0 0.1
2017-Nov-16 03:30N 53°29' W 003°25'0 0.2
2017-Nov-16 03:00N 53°29' W 003°26'0 0.1
2017-Nov-16 02:30N 53°28' W 003°26'0 0.0
2017-Nov-16 01:54N 53°28' W 003°26'0 0.0
2017-Nov-16 01:30N 53°28' W 003°26'0 0.0
2017-Nov-16 01:00N 53°28' W 003°26'0 0.0
2017-Nov-16 00:30N 53°28' W 003°26'0 0.0
2017-Nov-15 23:57N 53°28' W 003°26'0 0.0
2017-Nov-15 23:30N 53°28' W 003°26'0 0.0
2017-Nov-15 23:00N 53°28' W 003°26'0 0.0
2017-Nov-15 22:30N 53°28' W 003°26'0 0.1
2017-Nov-15 21:57N 53°29' W 003°26'0 0.0
2017-Nov-15 21:30N 53°29' W 003°26'0 0.2
2017-Nov-15 21:00N 53°28' W 003°25'0 0.0
2017-Nov-15 20:30N 53°28' W 003°25'0 0.0
2017-Nov-15 20:00N 53°28' W 003°25'0 0.0
2017-Nov-15 19:27N 53°28' W 003°25'0 0.0
2017-Nov-15 18:42N 53°28' W 003°25'0 0.0
2017-Nov-15 18:27N 53°28' W 003°25'0 0.0
2017-Nov-15 18:00N 53°28' W 003°25'0 0.0
2017-Nov-15 17:30N 53°28' W 003°25'0 0.0
2017-Nov-15 17:00N 53°28' W 003°25'0 0.0
2017-Nov-15 16:30N 53°28' W 003°25'0 0.0
2017-Nov-15 16:00N 53°28' W 003°25'2 4.8
2017-Nov-15 15:30N 53°29' W 003°29'612.3
2017-Nov-15 15:00N 53°31' W 003°39'611.7
2017-Nov-15 14:30N 53°34' W 003°48'611.9
2017-Nov-15 13:59N 53°37' W 003°57'611.5
2017-Nov-15 13:29N 53°40' W 004°05'4111.3
2017-Nov-15 09:49N 54°06' W 004°60'412.2
2017-Nov-15 09:31N 54°09' W 005°02'612.3
2017-Nov-15 09:01N 54°15' W 005°06'612.6
2017-Nov-15 08:31N 54°21' W 005°10'612.9
2017-Nov-15 08:01N 54°27' W 005°14'713.3
2017-Nov-15 07:30N 54°33' W 005°18'714.2
2017-Nov-15 07:01N 54°40' W 005°22'714.5
2017-Nov-15 06:31N 54°47' W 005°27'714.1
2017-Nov-15 06:01N 54°53' W 005°33'713.9
2017-Nov-15 05:31N 54°58' W 005°40'714.3
2017-Nov-15 05:00N 55°05' W 005°47'714.2
2017-Nov-15 04:30N 55°10' W 005°54'713.3
2017-Nov-15 04:01N 55°16' W 005°60'612.7
2017-Nov-15 03:30N 55°21' W 006°07'611.7
2017-Nov-15 03:00N 55°23' W 006°16'611.9
2017-Nov-15 02:31N 55°28' W 006°23'611.6
2017-Nov-15 02:00N 55°32' W 006°29'611.1
2017-Nov-15 01:30N 55°37' W 006°36'510.0
2017-Nov-15 01:00N 55°41' W 006°41'5 9.9
2017-Nov-15 00:30N 55°45' W 006°46'510.3
2017-Nov-15 00:00N 55°49' W 006°51'610.9
2017-Nov-14 23:28N 55°54' W 006°57'188 9.8
2017-Nov-14 04:22N 58°43' W 004°27'3 8.8
2017-Nov-14 04:00N 58°43' W 004°21'4 8.8
2017-Nov-14 03:30N 58°43' W 004°12'4 8.7
2017-Nov-14 03:00N 58°43' W 004°04'4 8.9
2017-Nov-14 02:30N 58°43' W 003°55'5 9.2
2017-Nov-14 02:00N 58°43' W 003°46'5 9.4
2017-Nov-14 01:30N 58°44' W 003°37'5 9.9
2017-Nov-14 01:00N 58°44' W 003°28'611.2
2017-Nov-14 00:29N 58°44' W 003°17'713.6
2017-Nov-14 00:01N 58°43' W 003°04'714.2
2017-Nov-13 23:30N 58°42' W 002°51'611.9
2017-Nov-13 23:00N 58°41' W 002°39'272 8.8
2017-Nov-12 16:02N 57°51' E 005°49'0 7.5
2017-Nov-12 16:00N 57°51' E 005°49'4 8.1
2017-Nov-12 15:29N 57°50' E 005°57'4 8.1
2017-Nov-12 15:00N 57°50' E 006°04'4 8.4
2017-Nov-12 14:30N 57°49' E 006°12'4 8.7
2017-Nov-12 14:01N 57°49' E 006°20'5 9.4
2017-Nov-12 13:30N 57°48' E 006°29'5 9.8
2017-Nov-12 13:00N 57°47' E 006°38'510.5
2017-Nov-12 12:30N 57°47' E 006°48'511.0
2017-Nov-12 12:01N 57°47' E 006°58'611.1
2017-Nov-12 11:30N 57°46' E 007°09'510.8
2017-Nov-12 11:00N 57°46' E 007°19'510.9
2017-Nov-12 10:31N 57°46' E 007°29'510.7
2017-Nov-12 10:00N 57°46' E 007°39'510.6
2017-Nov-12 09:30N 57°46' E 007°49'510.5
2017-Nov-12 09:00N 57°46' E 007°59'510.6
2017-Nov-12 08:30N 57°46' E 008°09'3310.2
2017-Nov-12 05:17N 57°47' E 009°10'3 9.5
2017-Nov-12 05:00N 57°47' E 009°15'5 9.4
2017-Nov-12 04:30N 57°47' E 009°24'5 9.8
2017-Nov-12 03:59N 57°47' E 009°34'510.1
2017-Nov-12 03:30N 57°48' E 009°43'1710.6
2017-Nov-12 01:55N 57°48' E 010°14'410.4
2017-Nov-12 01:30N 57°49' E 010°22'510.1
2017-Nov-12 01:00N 57°48' E 010°32'510.3
2017-Nov-12 00:30N 57°48' E 010°42'5 9.2
2017-Nov-12 00:01N 57°44' E 010°45'5 9.7
2017-Nov-11 23:30N 57°42' E 010°37'0 0.1
2017-Nov-11 22:58N 57°42' E 010°37'0 0.1
2017-Nov-11 21:49N 57°42' E 010°37'0 0.1
2017-Nov-11 21:22N 57°42' E 010°37'0 0.0
2017-Nov-11 20:46N 57°42' E 010°37'0 0.0
2017-Nov-11 20:22N 57°42' E 010°37'0 0.0
2017-Nov-11 19:37N 57°42' E 010°37'0 0.0
2017-Nov-11 19:28N 57°42' E 010°37'0 0.0
2017-Nov-11 18:46N 57°42' E 010°37'0 0.0
2017-Nov-11 18:19N 57°42' E 010°37'0 0.0
2017-Nov-11 17:49N 57°42' E 010°37'0 0.2
2017-Nov-11 17:30N 57°42' E 010°37'3 6.8
2017-Nov-11 17:00N 57°41' E 010°43'4 8.5
2017-Nov-11 16:30N 57°43' E 010°51'510.3
2017-Nov-11 16:00N 57°42' E 011°00'510.5
2017-Nov-11 15:30N 57°40' E 011°09'510.5
2017-Nov-11 15:00N 57°39' E 011°19'510.4
2017-Nov-11 14:30N 57°37' E 011°28'510.4
2017-Nov-11 14:00N 57°36' E 011°38'510.5
2017-Nov-11 13:30N 57°39' E 011°45'5 9.4
2017-Nov-11 13:00N 57°41' E 011°53'0 0.1
2017-Nov-11 12:28N 57°41' E 011°53'0 0.0
2017-Nov-11 11:58N 57°41' E 011°53'0 0.0
2017-Nov-11 11:28N 57°41' E 011°53'0 0.0
2017-Nov-11 10:58N 57°41' E 011°53'0 0.0
2017-Nov-11 10:28N 57°41' E 011°53'0 0.0
2017-Nov-11 09:58N 57°41' E 011°53'0 0.0
2017-Nov-11 09:28N 57°41' E 011°53'0 0.0
2017-Nov-11 08:58N 57°41' E 011°53'0 0.0
2017-Nov-11 08:25N 57°41' E 011°53'0 0.0
2017-Nov-11 07:58N 57°41' E 011°53'0 0.0
2017-Nov-11 07:28N 57°41' E 011°53'0 0.0
2017-Nov-11 06:58N 57°41' E 011°53'0 0.0
2017-Nov-11 06:28N 57°41' E 011°53'0 0.0
2017-Nov-11 05:58N 57°41' E 011°53'0 0.0
2017-Nov-11 05:28N 57°41' E 011°53'0 0.0
2017-Nov-11 04:59N 57°41' E 011°53'0 0.0
2017-Nov-11 04:29N 57°41' E 011°53'0 0.0
2017-Nov-11 03:59N 57°41' E 011°53'0 0.0
2017-Nov-11 03:29N 57°41' E 011°53'0 0.0
2017-Nov-11 02:59N 57°41' E 011°53'0 0.0
2017-Nov-11 02:29N 57°41' E 011°53'0 0.0
2017-Nov-11 01:59N 57°41' E 011°53'0 0.0
2017-Nov-11 01:29N 57°41' E 011°53'0 0.0
2017-Nov-11 00:59N 57°41' E 011°53'0 0.0
2017-Nov-11 00:26N 57°41' E 011°53'0 0.0
2017-Nov-11 00:00N 57°41' E 011°53'1 1.9
2017-Nov-10 23:30N 57°41' E 011°52'4 8.7
2017-Nov-10 23:01N 57°39' E 011°44'5 9.8
2017-Nov-10 22:31N 57°35' E 011°39'4 8.3
2017-Nov-10 22:00N 57°31' E 011°38'5 9.4
2017-Nov-10 21:30N 57°27' E 011°41'510.3
2017-Nov-10 21:01N 57°22' E 011°45'711.5
2017-Nov-10 20:23N 57°16' E 011°51'511.6
2017-Nov-10 19:58N 57°11' E 011°54'5211.2
2017-Nov-10 15:20N 56°21' E 012°22'411.5
2017-Nov-10 14:57N 56°17' E 012°24'511.8
2017-Nov-10 14:30N 56°12' E 012°28'612.2
2017-Nov-10 14:01N 56°07' E 012°33'612.7
2017-Nov-10 13:30N 56°02' E 012°40'612.6
2017-Nov-10 13:01N 55°56' E 012°44'612.0
2017-Nov-10 12:31N 55°50' E 012°46'612.0
2017-Nov-10 12:01N 55°45' E 012°51'612.1
2017-Nov-10 11:30N 55°40' E 012°57'611.3
2017-Nov-10 11:00N 55°35' E 012°51'611.8
2017-Nov-10 10:31N 55°31' E 012°44'612.3
2017-Nov-10 10:00N 55°25' E 012°42'611.8
2017-Nov-10 09:30N 55°19' E 012°42'611.8
2017-Nov-10 09:01N 55°16' E 012°51'611.8
2017-Nov-10 08:30N 55°15' E 013°02'611.7
2017-Nov-10 08:00N 55°14' E 013°12'1611.6
2017-Nov-10 06:39N 55°14' E 013°39'411.3
2017-Nov-10 06:16N 55°13' E 013°47'411.6
2017-Nov-10 05:58N 55°13' E 013°53'1011.7
2017-Nov-10 05:05N 55°13' E 014°11'211.5
2017-Nov-10 04:56N 55°13' E 014°14'510.7
2017-Nov-10 04:30N 55°15' E 014°21'611.7
2017-Nov-10 04:00N 55°20' E 014°27'611.4
2017-Nov-10 03:29N 55°25' E 014°33'510.9
2017-Nov-10 03:00N 55°28' E 014°40'611.2
2017-Nov-10 02:30N 55°31' E 014°49'611.1
2017-Nov-10 02:00N 55°33' E 014°58'611.2
2017-Nov-10 01:30N 55°36' E 015°06'510.8
2017-Nov-10 01:01N 55°38' E 015°15'510.7
2017-Nov-10 00:31N 55°40' E 015°24'  

Dump ship's entire track history